createdAt,value
2022-08-07T00:00:25.375Z,15.90
2022-08-07T00:02:53.818Z,15.50
2022-08-07T00:05:21.038Z,14.40
2022-08-07T00:08:00.102Z,15.30
2022-08-07T00:10:31.017Z,15.20
2022-08-07T00:13:01.010Z,14.63
2022-08-07T00:15:38.187Z,13.43
2022-08-07T00:18:19.767Z,12.43
2022-08-07T00:20:51.343Z,14.50
2022-08-07T00:23:18.202Z,14.53
2022-08-07T00:25:58.985Z,13.57
2022-08-07T00:28:31.577Z,13.30
2022-08-07T00:31:01.309Z,12.50
2022-08-07T00:33:33.086Z,11.70
2022-08-07T00:36:00.338Z,12.87
2022-08-07T00:38:31.774Z,12.93
2022-08-07T00:40:59.192Z,14.20
2022-08-07T00:43:59.436Z,13.53
2022-08-07T00:46:13.400Z,13.80
2022-08-07T00:48:42.280Z,13.50
2022-08-07T00:51:09.235Z,13.20
2022-08-07T00:53:38.420Z,14.30
2022-08-07T00:56:07.410Z,13.83
2022-08-07T00:58:47.081Z,14.47
2022-08-07T01:01:16.792Z,13.63
2022-08-07T01:03:56.120Z,12.33
2022-08-07T01:06:27.248Z,13.00
2022-08-07T01:08:56.393Z,12.73
2022-08-07T01:12:23.866Z,14.10
2022-08-07T01:14:12.680Z,13.10
2022-08-07T01:16:43.126Z,13.13
2022-08-07T01:19:18.074Z,13.63
2022-08-07T01:21:45.831Z,13.23
2022-08-07T01:24:13.261Z,14.30
2022-08-07T01:26:40.320Z,13.80
2022-08-07T01:29:07.168Z,13.27
2022-08-07T01:31:42.622Z,14.00
2022-08-07T01:34:14.965Z,13.40
2022-08-07T01:36:41.958Z,14.60
2022-08-07T01:39:11.563Z,14.57
2022-08-07T01:41:55.112Z,14.07
2022-08-07T01:44:26.117Z,13.93
2022-08-07T01:46:53.300Z,14.20
2022-08-07T01:49:22.133Z,13.93
2022-08-07T01:52:04.277Z,14.50
2022-08-07T01:54:36.858Z,14.07
2022-08-07T01:57:25.588Z,12.80
2022-08-07T02:00:01.421Z,12.93
2022-08-07T02:03:19.222Z,12.53
2022-08-07T02:05:48.365Z,12.53
2022-08-07T02:08:24.624Z,13.10
2022-08-07T02:10:55.105Z,13.53
2022-08-07T02:13:47.012Z,14.63
2022-08-07T02:16:11.818Z,13.23
2022-08-07T02:18:46.984Z,11.73
2022-08-07T02:21:16.349Z,11.90
2022-08-07T02:23:43.348Z,12.73
2022-08-07T02:26:32.504Z,11.37
2022-08-07T02:28:58.121Z,12.80
2022-08-07T02:31:28.763Z,12.03
2022-08-07T02:34:03.901Z,11.10
2022-08-07T02:36:38.007Z,11.57
2022-08-07T02:39:16.321Z,11.40
2022-08-07T02:41:54.847Z,12.23
2022-08-07T02:44:23.933Z,12.70
2022-08-07T02:46:54.896Z,11.50
2022-08-07T02:49:55.980Z,12.90
2022-08-07T02:52:09.936Z,11.70
2022-08-07T02:54:41.085Z,13.53
2022-08-07T02:57:11.278Z,13.03
2022-08-07T02:59:43.630Z,12.40
2022-08-07T03:06:04.754Z,12.23
2022-08-07T03:08:43.286Z,12.53
2022-08-07T03:11:10.753Z,12.50
2022-08-07T03:13:38.867Z,13.13
2022-08-07T03:16:16.397Z,12.20
2022-08-07T03:18:44.854Z,13.13
2022-08-07T03:21:16.043Z,12.97
2022-08-07T03:24:18.234Z,12.00
2022-08-07T03:26:33.214Z,14.40
2022-08-07T03:29:01.750Z,14.07
2022-08-07T03:31:42.124Z,13.00
2022-08-07T03:34:10.320Z,14.50
2022-08-07T03:36:46.025Z,13.20
2022-08-07T03:39:15.390Z,12.63
2022-08-07T03:41:47.776Z,12.90
2022-08-07T03:44:21.633Z,14.57
2022-08-07T03:47:14.067Z,14.10
2022-08-07T03:49:42.209Z,14.10
2022-08-07T03:52:22.858Z,14.90
2022-08-07T03:55:07.110Z,15.47
2022-08-07T03:58:34.342Z,15.30
2022-08-07T04:00:21.309Z,14.33
2022-08-07T04:02:58.219Z,13.60
2022-08-07T04:05:39.548Z,13.33
2022-08-07T04:08:11.057Z,13.97
2022-08-07T04:10:38.830Z,14.73
2022-08-07T04:13:07.576Z,14.40
2022-08-07T04:15:41.877Z,14.20
2022-08-07T04:18:56.469Z,15.07
2022-08-07T04:20:59.241Z,15.60
2022-08-07T04:23:43.457Z,15.03
2022-08-07T04:26:12.998Z,13.50
2022-08-07T04:28:44.041Z,12.73
2022-08-07T04:31:14.171Z,13.57
2022-08-07T04:33:47.034Z,14.33
2022-08-07T04:36:22.758Z,13.97
2022-08-07T04:38:52.808Z,12.77
2022-08-07T04:41:19.689Z,14.60
2022-08-07T04:44:12.905Z,12.70
2022-08-07T04:46:59.581Z,13.40
2022-08-07T04:50:11.029Z,13.63
2022-08-07T04:53:04.179Z,13.33
2022-08-07T04:58:12.484Z,12.80
2022-08-07T05:01:58.220Z,10.80
2022-08-07T05:04:47.216Z,10.93
2022-08-07T05:07:30.711Z,9.87
2022-08-07T05:10:12.554Z,10.60
2022-08-07T05:14:44.640Z,8.60
2022-08-07T05:15:50.617Z,9.30
2022-08-07T05:18:25.760Z,8.60
2022-08-07T05:20:54.873Z,8.00
2022-08-07T05:23:30.005Z,7.67
2022-08-07T05:26:13.259Z,7.10
2022-08-07T05:28:48.562Z,6.93
2022-08-07T05:31:20.529Z,6.53
2022-08-07T05:33:51.316Z,5.80
2022-08-07T05:36:35.783Z,5.83
2022-08-07T05:40:06.493Z,6.47
2022-08-07T05:42:02.763Z,6.27
2022-08-07T05:44:33.703Z,6.60
2022-08-07T05:47:01.273Z,6.10
2022-08-07T05:49:28.092Z,5.13
2022-08-07T05:52:11.624Z,5.77
2022-08-07T05:54:53.195Z,5.50
2022-08-07T05:57:26.639Z,5.43
2022-08-07T05:59:58.346Z,5.53
2022-08-07T06:02:29.160Z,5.40
2022-08-07T06:04:59.600Z,5.50
2022-08-07T06:08:14.917Z,4.67
2022-08-07T06:10:15.350Z,4.80
2022-08-07T06:12:42.360Z,5.03
2022-08-07T06:15:09.783Z,4.80
2022-08-07T06:17:53.364Z,4.23
2022-08-07T06:20:49.831Z,3.97
2022-08-07T06:23:46.254Z,3.30
2022-08-07T06:25:59.479Z,3.23
2022-08-07T06:28:27.448Z,3.03
2022-08-07T06:30:55.478Z,3.20
2022-08-07T06:33:22.858Z,2.63
2022-08-07T06:36:12.225Z,2.73
2022-08-07T06:38:36.808Z,2.90
2022-08-07T06:41:06.899Z,2.70
2022-08-07T06:43:39.516Z,2.20
2022-08-07T06:46:11.598Z,2.53
2022-08-07T06:48:42.044Z,2.70
2022-08-07T06:51:15.429Z,2.43
2022-08-07T06:55:31.488Z,2.50
2022-08-07T06:56:49.506Z,2.40
2022-08-07T07:00:14.420Z,2.20
2022-08-07T07:02:48.567Z,2.30
2022-08-07T07:05:05.731Z,2.10
2022-08-07T07:07:59.796Z,2.60
2022-08-07T07:10:33.746Z,2.27
2022-08-07T07:13:15.023Z,2.17
2022-08-07T07:15:51.643Z,1.90
2022-08-07T07:18:46.838Z,2.37
2022-08-07T07:21:20.051Z,2.73
2022-08-07T07:24:08.087Z,3.00
2022-08-07T07:26:36.961Z,2.87
2022-08-07T07:29:40.151Z,2.50
2022-08-07T07:31:55.578Z,2.87
2022-08-07T07:34:30.882Z,2.70
2022-08-07T07:37:14.325Z,2.50
2022-08-07T07:39:55.051Z,2.90
2022-08-07T07:42:32.643Z,3.00
2022-08-07T07:45:03.907Z,3.10
2022-08-07T07:47:52.109Z,2.83
2022-08-07T07:50:35.903Z,2.97
2022-08-07T07:53:04.305Z,3.20
2022-08-07T07:55:37.326Z,2.57
2022-08-07T07:58:12.484Z,3.07
2022-08-07T08:00:39.877Z,3.30
2022-08-07T08:03:16.645Z,3.10
2022-08-07T08:05:54.074Z,3.00
2022-08-07T08:08:35.496Z,2.97
2022-08-07T08:11:08.330Z,2.70
2022-08-07T08:13:52.971Z,2.63
2022-08-07T08:16:25.083Z,3.00
2022-08-07T08:18:52.249Z,3.63
2022-08-07T08:21:55.963Z,2.97
2022-08-07T08:24:47.711Z,2.60
2022-08-07T08:27:25.307Z,3.30
2022-08-07T08:30:08.282Z,3.00
2022-08-07T08:32:48.437Z,2.57
2022-08-07T08:35:18.895Z,2.77
2022-08-07T08:38:01.627Z,3.47
2022-08-07T08:40:37.933Z,2.70
2022-08-07T08:43:17.690Z,3.40
2022-08-07T08:45:58.884Z,3.57
2022-08-07T08:48:59.765Z,3.13
2022-08-07T08:51:49.399Z,2.70
2022-08-07T08:54:24.202Z,2.80
2022-08-07T08:56:52.718Z,3.30
2022-08-07T08:59:48.396Z,2.67
2022-08-07T09:02:35.186Z,3.63
2022-08-07T09:05:14.693Z,2.73
2022-08-07T09:07:58.327Z,2.80
2022-08-07T09:10:36.318Z,2.60
2022-08-07T09:13:37.711Z,2.67
2022-08-07T09:16:24.389Z,3.00
2022-08-07T09:19:50.882Z,3.20
2022-08-07T09:22:22.865Z,2.60
2022-08-07T09:25:17.633Z,2.70
2022-08-07T09:28:05.007Z,2.40
2022-08-07T09:30:44.206Z,2.23
2022-08-07T09:33:52.670Z,2.30
2022-08-07T09:36:52.315Z,2.47
2022-08-07T09:39:53.833Z,2.07
2022-08-07T09:42:50.380Z,2.80
2022-08-07T09:47:24.104Z,9.27
2022-08-07T09:48:55.838Z,6.97
2022-08-07T09:52:15.997Z,2.30
2022-08-07T09:54:46.825Z,2.83
2022-08-07T09:57:22.728Z,2.63
2022-08-07T10:00:09.169Z,2.80
2022-08-07T10:04:06.979Z,2.50
2022-08-07T10:06:02.774Z,2.20
2022-08-07T10:09:03.660Z,1.77
2022-08-07T10:12:02.036Z,1.87
2022-08-07T10:15:01.298Z,2.47
2022-08-07T10:18:03.454Z,2.50
2022-08-07T10:20:36.057Z,2.30
2022-08-07T10:24:06.734Z,3.00
2022-08-07T10:26:53.218Z,2.60
2022-08-07T10:29:52.055Z,3.00
2022-08-07T10:32:51.480Z,2.20
2022-08-07T10:35:27.156Z,2.17
2022-08-07T10:38:36.136Z,2.00
2022-08-07T10:41:51.773Z,2.37
2022-08-07T10:44:40.578Z,2.00
2022-08-07T10:47:51.318Z,1.93
2022-08-07T10:50:25.980Z,1.70
2022-08-07T10:52:55.485Z,1.90
2022-08-07T10:55:37.882Z,2.00
2022-08-07T10:58:46.141Z,2.40
2022-08-07T11:01:15.131Z,2.17
2022-08-07T11:03:55.136Z,2.10
2022-08-07T11:06:48.082Z,1.63
2022-08-07T11:10:07.124Z,1.90
2022-08-07T11:12:31.581Z,1.80
2022-08-07T11:15:03.693Z,2.30
2022-08-07T11:17:54.409Z,2.20
2022-08-07T11:20:24.885Z,1.90
2022-08-07T11:22:54.074Z,1.37
2022-08-07T11:25:30.260Z,2.00
2022-08-07T11:28:09.147Z,2.00
2022-08-07T11:31:02.817Z,1.90
2022-08-07T11:33:59.828Z,1.70
2022-08-07T11:36:39.266Z,1.70
2022-08-07T11:39:19.886Z,2.00
2022-08-07T11:42:19.041Z,1.70
2022-08-07T11:44:57.921Z,2.10
2022-08-07T11:48:02.605Z,1.90
2022-08-07T11:51:41.644Z,1.60
2022-08-07T11:54:33.481Z,1.93
2022-08-07T11:58:00.025Z,1.80
2022-08-07T12:00:31.316Z,2.13
2022-08-07T12:03:44.763Z,2.10
2022-08-07T12:06:39.248Z,1.93
2022-08-07T12:09:22.876Z,1.90
2022-08-07T12:12:22.790Z,1.90
2022-08-07T12:15:04.774Z,1.67
2022-08-07T12:17:58.663Z,1.67
2022-08-07T12:20:49.625Z,2.07
2022-08-07T12:24:05.092Z,1.80
2022-08-07T12:26:46.687Z,1.77
2022-08-07T12:29:51.931Z,1.60
2022-08-07T12:32:27.725Z,1.70
2022-08-07T12:34:55.926Z,1.60
2022-08-07T12:37:28.336Z,2.00
2022-08-07T12:40:36.210Z,1.47
2022-08-07T12:42:59.052Z,1.90
2022-08-07T12:45:29.378Z,1.63
2022-08-07T12:48:02.523Z,1.40
2022-08-07T12:50:49.371Z,1.97
2022-08-07T12:54:24.062Z,1.50
2022-08-07T12:56:26.554Z,1.60
2022-08-07T12:58:57.267Z,1.77
2022-08-07T13:01:32.253Z,1.60
2022-08-07T13:04:35.667Z,1.90
2022-08-07T13:08:13.798Z,1.63
2022-08-07T13:10:39.287Z,1.90
2022-08-07T13:13:57.419Z,1.80
2022-08-07T13:16:36.920Z,1.43
2022-08-07T13:19:45.741Z,1.50
2022-08-07T13:22:19.398Z,2.07
2022-08-07T13:25:04.238Z,2.17
2022-08-07T13:28:11.236Z,1.73
2022-08-07T13:30:48.761Z,1.80
2022-08-07T13:34:33.415Z,1.40
2022-08-07T13:36:22.048Z,1.90
2022-08-07T13:39:12.982Z,1.90
2022-08-07T13:41:54.674Z,1.80
2022-08-07T13:44:34.677Z,1.60
2022-08-07T13:47:04.779Z,1.60
2022-08-07T13:50:33.661Z,1.80
2022-08-07T13:52:33.750Z,2.13
2022-08-07T13:55:10.994Z,1.90
2022-08-07T13:57:40.700Z,1.43
2022-08-07T14:00:35.845Z,1.80
2022-08-07T14:03:30.073Z,1.60
2022-08-07T14:06:04.026Z,1.80
2022-08-07T14:08:31.320Z,1.40
2022-08-07T14:11:14.576Z,1.60
2022-08-07T14:13:47.766Z,1.60
2022-08-07T14:16:16.072Z,1.63
2022-08-07T14:18:56.982Z,1.33
2022-08-07T14:22:03.865Z,1.47
2022-08-07T14:24:41.326Z,1.70
2022-08-07T14:28:09.790Z,1.60
2022-08-07T14:30:08.147Z,1.50
2022-08-07T14:32:46.068Z,1.63
2022-08-07T14:35:42.992Z,1.57
2022-08-07T14:38:07.223Z,1.40
2022-08-07T14:40:35.331Z,1.43
2022-08-07T14:43:59.336Z,1.60
2022-08-07T14:45:56.725Z,1.83
2022-08-07T14:48:27.617Z,8.17
2022-08-07T14:50:56.334Z,2.40
2022-08-07T14:59:03.111Z,2.50
2022-08-07T15:01:42.733Z,13.50
2022-08-07T15:04:17.844Z,3.83
2022-08-07T15:06:47.612Z,52.57
2022-08-07T15:09:58.529Z,2.67
2022-08-07T15:12:07.910Z,1.87
2022-08-07T15:14:55.991Z,2.80
2022-08-07T15:17:54.893Z,7.13
2022-08-07T15:20:32.797Z,11.10
2022-08-07T15:23:01.353Z,21.33
2022-08-07T15:25:50.887Z,2.70
2022-08-07T15:31:06.692Z,2.83
2022-08-07T15:33:36.202Z,39.37
2022-08-07T15:42:45.652Z,1.70
2022-08-07T15:44:28.963Z,4.67
2022-08-07T15:47:03.652Z,1.60
2022-08-07T15:52:30.603Z,3.13
2022-08-07T15:55:02.726Z,14.07
2022-08-07T15:57:40.229Z,7.83
2022-08-07T16:00:31.663Z,5.13
2022-08-07T16:03:08.540Z,1.70
2022-08-07T16:05:49.229Z,2.50
2022-08-07T16:08:32.499Z,4.83
2022-08-07T16:11:26.719Z,3.37
2022-08-07T16:14:03.205Z,7.33
2022-08-07T16:17:02.351Z,2.80
2022-08-07T16:19:42.849Z,1.80
2022-08-07T16:22:55.270Z,1.80
2022-08-07T16:25:55.680Z,2.23
2022-08-07T16:30:07.580Z,4.47
2022-08-07T16:32:07.811Z,3.87
2022-08-07T16:34:56.831Z,1.80
2022-08-07T16:38:04.656Z,1.57
2022-08-07T16:41:04.513Z,1.40
2022-08-07T16:44:05.577Z,1.70
2022-08-07T16:47:04.833Z,1.50
2022-08-07T16:50:20.232Z,2.10
2022-08-07T16:53:48.061Z,1.53
2022-08-07T16:55:53.478Z,1.53
2022-08-07T16:59:11.293Z,1.70
2022-08-07T17:01:55.665Z,1.70
2022-08-07T17:04:37.042Z,2.00
2022-08-07T17:07:28.388Z,1.37
2022-08-07T17:10:30.440Z,2.10
2022-08-07T17:13:41.585Z,2.77
2022-08-07T17:16:25.018Z,1.67
2022-08-07T17:18:51.900Z,3.07
2022-08-07T17:21:51.754Z,1.70
2022-08-07T17:24:23.743Z,1.90
2022-08-07T17:27:08.511Z,4.60
2022-08-07T17:30:15.380Z,4.87
2022-08-07T17:33:02.607Z,2.30
2022-08-07T17:35:54.962Z,1.90
2022-08-07T17:38:46.693Z,2.73
2022-08-07T17:42:02.023Z,2.50
2022-08-07T17:44:54.697Z,4.73
2022-08-07T17:47:38.156Z,2.33
2022-08-07T17:50:19.439Z,2.60
2022-08-07T17:52:55.210Z,2.43
2022-08-07T17:56:00.479Z,2.50
2022-08-07T17:58:46.545Z,2.30
2022-08-07T18:01:22.008Z,2.23
2022-08-07T18:04:16.619Z,2.20
2022-08-07T18:07:19.653Z,1.80
2022-08-07T18:09:48.415Z,3.53
2022-08-07T18:12:30.417Z,2.70
2022-08-07T18:15:08.743Z,2.50
2022-08-07T18:18:47.071Z,2.00
2022-08-07T18:21:12.558Z,2.77
2022-08-07T18:23:43.797Z,2.10
2022-08-07T18:26:15.187Z,2.33
2022-08-07T18:29:03.533Z,3.03
2022-08-07T18:31:50.177Z,2.63
2022-08-07T18:35:00.889Z,2.57
2022-08-07T18:38:56.140Z,2.43
2022-08-07T18:41:09.265Z,2.63
2022-08-07T18:43:50.158Z,2.70
2022-08-07T18:46:42.840Z,2.23
2022-08-07T18:50:35.199Z,2.40
2022-08-07T18:52:54.290Z,1.97
2022-08-07T18:55:43.025Z,1.83
2022-08-07T18:58:42.405Z,2.17
2022-08-07T19:02:32.502Z,2.50
2022-08-07T19:04:54.404Z,2.93
2022-08-07T19:07:51.707Z,2.40
2022-08-07T19:10:51.863Z,2.33
2022-08-07T19:13:21.739Z,2.70
2022-08-07T19:16:05.131Z,2.17
2022-08-07T19:18:58.687Z,2.07
2022-08-07T19:22:04.893Z,2.27
2022-08-07T19:24:44.580Z,2.70
2022-08-07T19:29:02.826Z,2.60
2022-08-07T19:31:06.121Z,2.70
2022-08-07T19:32:51.134Z,3.30
2022-08-07T19:35:22.539Z,3.30
2022-08-07T19:37:56.237Z,3.40
2022-08-07T19:40:31.623Z,4.20
2022-08-07T19:43:07.408Z,4.10
2022-08-07T19:46:08.238Z,4.13
2022-08-07T19:48:43.996Z,3.90
2022-08-07T19:51:20.493Z,3.70
2022-08-07T19:54:31.283Z,3.33
2022-08-07T19:58:03.121Z,2.67
2022-08-07T19:59:40.735Z,3.30
2022-08-07T20:02:12.361Z,2.70
2022-08-07T20:04:43.075Z,3.20
2022-08-07T20:07:23.438Z,3.53
2022-08-07T20:10:35.275Z,3.20
2022-08-07T20:12:38.553Z,2.93
2022-08-07T20:15:09.508Z,3.20
2022-08-07T20:17:43.709Z,3.07
2022-08-07T20:20:10.777Z,3.13
2022-08-07T20:22:41.428Z,3.57
2022-08-07T20:25:12.605Z,3.70
2022-08-07T20:27:48.008Z,3.20
2022-08-07T20:30:28.981Z,3.40
2022-08-07T20:32:58.132Z,3.43
2022-08-07T20:35:34.194Z,3.47
2022-08-07T20:38:04.762Z,3.70
2022-08-07T20:40:34.630Z,3.70
2022-08-07T20:43:03.163Z,3.70
2022-08-07T20:46:26.563Z,4.03
2022-08-07T20:48:28.295Z,3.40
2022-08-07T20:51:00.479Z,3.80
2022-08-07T20:54:04.102Z,3.47
2022-08-07T20:56:16.206Z,3.60
2022-08-07T20:58:43.442Z,3.50
2022-08-07T21:01:19.727Z,3.63
2022-08-07T21:04:07.560Z,3.70
2022-08-07T21:06:38.232Z,4.03
2022-08-07T21:09:14.115Z,3.80
2022-08-07T21:11:50.166Z,3.80
2022-08-07T21:14:33.998Z,4.07
2022-08-07T21:18:01.125Z,3.47
2022-08-07T21:20:00.636Z,3.43
2022-08-07T21:22:45.111Z,4.17
2022-08-07T21:25:29.138Z,4.60
2022-08-07T21:28:47.569Z,4.67
2022-08-07T21:31:50.007Z,4.67
2022-08-07T21:34:16.321Z,3.70
2022-08-07T21:36:50.176Z,3.70
2022-08-07T21:39:46.259Z,4.23
2022-08-07T21:42:37.725Z,3.57
2022-08-07T21:45:08.398Z,4.50
2022-08-07T21:48:02.529Z,3.80
2022-08-07T21:50:48.713Z,3.87
2022-08-07T21:53:16.957Z,4.93
2022-08-07T21:56:03.445Z,4.60
2022-08-07T21:59:01.589Z,4.17
2022-08-07T22:02:10.949Z,3.73
2022-08-07T22:04:53.817Z,4.00
2022-08-07T22:07:48.767Z,4.27
2022-08-07T22:10:20.103Z,4.10
2022-08-07T22:12:55.610Z,4.53
2022-08-07T22:16:38.995Z,4.83
2022-08-07T22:18:44.650Z,4.73
2022-08-07T22:21:19.347Z,4.47
2022-08-07T22:24:17.465Z,4.23
2022-08-07T22:26:55.519Z,4.60
2022-08-07T22:29:47.414Z,4.00
2022-08-07T22:32:20.130Z,4.20
2022-08-07T22:34:54.398Z,4.50
2022-08-07T22:38:03.887Z,4.60
2022-08-07T22:40:35.841Z,4.40
2022-08-07T22:43:08.976Z,5.20
2022-08-07T22:46:42.755Z,4.57
2022-08-07T22:49:09.570Z,4.50
2022-08-07T22:51:49.059Z,4.67
2022-08-07T22:54:49.053Z,4.97
2022-08-07T22:57:41.110Z,4.10
2022-08-07T23:00:28.514Z,4.90
2022-08-07T23:03:00.793Z,4.67
2022-08-07T23:06:09.267Z,4.07
2022-08-07T23:08:51.536Z,4.00
2022-08-07T23:11:56.643Z,3.97
2022-08-07T23:14:57.654Z,4.43
2022-08-07T23:17:48.779Z,4.23
2022-08-07T23:20:51.224Z,4.93
2022-08-07T23:24:05.232Z,4.60
2022-08-07T23:26:49.994Z,4.57
2022-08-07T23:29:43.377Z,4.83
2022-08-07T23:34:19.695Z,4.70
2022-08-07T23:35:37.450Z,5.03
2022-08-07T23:38:42.389Z,5.20
2022-08-07T23:41:33.579Z,5.00
2022-08-07T23:44:47.014Z,5.17
2022-08-07T23:47:42.209Z,5.00
2022-08-07T23:50:29.728Z,5.17
2022-08-07T23:53:15.311Z,4.83
2022-08-07T23:55:53.069Z,5.70
2022-08-07T23:58:30.454Z,5.30
